Time;durP1;ratioP1;P1;durP2;ratioP2;P2;SDS_P1;SDS_P2;PMS_P1;PMS_P2;Temp;Humidity;BMP_temperature;BMP_pressure;BME280_temperature;BME280_humidity;BME280_pressure;Samples;Min_cycle;Max_cycle;Signal;HPM_P1;HPM_P2
2021/06/30 00:01:18;;;;;;;3.20;2.90;;;15.50;99.90;;;;;;4993285;28;20740;-81
2021/06/30 00:03:44;;;;;;;3.50;3.10;;;15.40;99.90;;;;;;4974715;28;20087;-80
2021/06/30 00:06:11;;;;;;;3.35;3.05;;;15.50;99.90;;;;;;4989509;28;20844;-80
2021/06/30 00:08:37;;;;;;;3.50;3.20;;;15.40;99.90;;;;;;5010329;28;20026;-80
2021/06/30 00:11:04;;;;;;;3.55;2.72;;;15.40;99.90;;;;;;5006697;28;20026;-80
2021/06/30 00:13:30;;;;;;;3.65;3.35;;;15.40;99.90;;;;;;4991976;28;20041;-81
2021/06/30 00:15:56;;;;;;;3.95;3.55;;;15.40;99.90;;;;;;4975417;28;20041;-80
2021/06/30 00:18:23;;;;;;;4.03;3.58;;;15.30;99.90;;;;;;4992864;28;20022;-80
2021/06/30 00:20:50;;;;;;;5.03;4.28;;;15.30;99.90;;;;;;4975652;28;20240;-80
2021/06/30 00:23:16;;;;;;;4.40;3.80;;;15.30;99.90;;;;;;4992054;28;20851;-80
2021/06/30 00:25:43;;;;;;;4.50;4.10;;;15.30;99.90;;;;;;4988901;28;20500;-80
2021/06/30 00:28:09;;;;;;;4.70;4.30;;;15.20;99.90;;;;;;4993036;28;20495;-80
2021/06/30 00:30:35;;;;;;;4.22;3.80;;;15.20;99.90;;;;;;4979269;28;20034;-80
2021/06/30 00:33:01;;;;;;;5.82;4.07;;;15.20;99.90;;;;;;4970833;28;20030;-80
2021/06/30 00:35:27;;;;;;;4.40;3.78;;;15.20;99.90;;;;;;4991566;28;20377;-80
2021/06/30 00:37:53;;;;;;;4.40;4.00;;;15.20;99.90;;;;;;4963354;28;20034;-79
2021/06/30 00:40:19;;;;;;;3.95;3.65;;;15.20;99.90;;;;;;4978798;28;20038;-79
2021/06/30 00:42:44;;;;;;;8.73;3.97;;;15.20;99.90;;;;;;4978819;28;20048;-79
2021/06/30 00:45:11;;;;;;;4.40;4.00;;;15.20;99.90;;;;;;4978014;28;20109;-80
2021/06/30 00:47:37;;;;;;;3.50;3.20;;;15.20;99.90;;;;;;4976681;28;20049;-80
2021/06/30 00:50:03;;;;;;;4.55;4.15;;;15.10;99.90;;;;;;5012520;28;20824;-79
2021/06/30 00:52:29;;;;;;;3.60;3.30;;;15.10;99.90;;;;;;5012516;28;20022;-80
2021/06/30 00:54:55;;;;;;;3.50;3.20;;;15.10;99.90;;;;;;4978188;28;20026;-79
2021/06/30 00:57:21;;;;;;;4.38;3.50;;;15.10;99.90;;;;;;4985911;28;20037;-79
2021/06/30 00:59:47;;;;;;;3.60;3.30;;;15.10;99.90;;;;;;4956141;28;20042;-79
2021/06/30 01:02:13;;;;;;;3.92;3.50;;;15.10;99.90;;;;;;4988494;28;20045;-80
2021/06/30 01:04:39;;;;;;;4.32;3.92;;;15.10;99.90;;;;;;4991242;28;20026;-79
2021/06/30 01:07:05;;;;;;;3.50;3.20;;;15.10;99.90;;;;;;4979452;28;20056;-79
2021/06/30 01:09:32;;;;;;;3.30;3.05;;;15.20;99.90;;;;;;4994445;28;20030;-79
2021/06/30 01:11:58;;;;;;;4.65;3.33;;;15.20;99.90;;;;;;5011857;28;20030;-79
2021/06/30 01:14:29;;;;;;;3.55;3.25;;;15.20;99.90;;;;;;4978780;28;20041;-80
2021/06/30 01:16:57;;;;;;;3.55;3.25;;;15.20;99.90;;;;;;4977444;28;20485;-80
2021/06/30 01:19:23;;;;;;;5.25;3.45;;;15.20;99.90;;;;;;5011754;28;20104;-80
2021/06/30 01:21:50;;;;;;;3.85;3.55;;;15.20;99.90;;;;;;4971379;28;20109;-79
2021/06/30 01:24:17;;;;;;;3.75;3.40;;;15.10;99.90;;;;;;4978322;28;20045;-79
2021/06/30 01:26:43;;;;;;;3.60;3.30;;;15.10;99.90;;;;;;4974371;28;20026;-80
2021/06/30 01:29:09;;;;;;;4.18;3.38;;;15.10;99.90;;;;;;5012815;28;20033;-81
2021/06/30 01:31:35;;;;;;;3.65;3.35;;;15.10;99.90;;;;;;4979530;28;20100;-80
2021/06/30 01:34:01;;;;;;;3.80;3.50;;;15.00;99.90;;;;;;4995063;28;20071;-80
2021/06/30 01:36:27;;;;;;;3.00;2.70;;;15.10;99.90;;;;;;4994251;28;20037;-82
2021/06/30 01:38:53;;;;;;;3.65;3.35;;;15.10;99.90;;;;;;4995144;28;20030;-80
2021/06/30 01:41:18;;;;;;;3.80;3.50;;;15.10;99.90;;;;;;4979991;28;20380;-81
2021/06/30 01:43:44;;;;;;;3.70;3.40;;;15.10;99.90;;;;;;4979772;28;20064;-82
2021/06/30 01:46:10;;;;;;;4.10;3.70;;;15.00;99.90;;;;;;4976767;28;20030;-81
2021/06/30 01:48:36;;;;;;;3.60;3.30;;;15.00;99.90;;;;;;4978417;28;20050;-80
2021/06/30 01:51:02;;;;;;;3.70;3.30;;;15.00;99.90;;;;;;4994122;28;20037;-80
2021/06/30 01:53:28;;;;;;;4.53;3.85;;;15.00;99.90;;;;;;4994823;28;20075;-81
2021/06/30 01:55:54;;;;;;;4.38;3.97;;;15.00;99.90;;;;;;5009661;28;20049;-81
2021/06/30 01:58:22;;;;;;;6.20;3.63;;;15.00;99.90;;;;;;4991368;28;20088;-80
2021/06/30 02:00:55;;;;;;;3.88;3.42;;;15.00;99.90;;;;;;4970294;28;20034;-80
2021/06/30 02:03:21;;;;;;;3.78;3.47;;;15.00;99.90;;;;;;4978221;28;20044;-80
2021/06/30 02:05:47;;;;;;;3.90;3.60;;;15.00;99.90;;;;;;4978884;28;20030;-80
2021/06/30 02:08:14;;;;;;;4.18;3.33;;;15.00;99.90;;;;;;4994914;28;20036;-80
2021/06/30 02:10:40;;;;;;;3.80;3.40;;;15.10;99.90;;;;;;4994159;28;20022;-81
2021/06/30 02:13:06;;;;;;;3.60;3.30;;;15.10;99.90;;;;;;5012494;28;20090;-80
2021/06/30 02:15:35;;;;;;;3.78;3.47;;;15.10;99.90;;;;;;5014545;28;20033;-81
2021/06/30 02:18:02;;;;;;;4.95;3.92;;;15.00;99.90;;;;;;4991261;28;20042;-80
2021/06/30 02:20:28;;;;;;;4.53;4.13;;;15.00;99.90;;;;;;4989727;28;20116;-80
2021/06/30 02:22:55;;;;;;;4.03;3.65;;;14.90;99.90;;;;;;5016149;28;20030;-80
2021/06/30 02:25:27;;;;;;;4.25;3.85;;;14.90;99.90;;;;;;5010628;28;20120;-81
2021/06/30 02:27:53;;;;;;;5.05;3.97;;;14.90;99.90;;;;;;4988689;28;20037;-80
2021/06/30 02:30:22;;;;;;;4.20;3.80;;;14.90;99.90;;;;;;4983849;28;20125;-80
2021/06/30 02:32:48;;;;;;;3.50;3.20;;;14.90;99.90;;;;;;4973997;28;20041;-80
2021/06/30 02:35:17;;;;;;;4.47;3.90;;;14.90;99.90;;;;;;5002767;28;20539;-80
2021/06/30 02:37:43;;;;;;;3.78;3.47;;;14.80;99.90;;;;;;4993624;28;20038;-80
2021/06/30 02:40:12;;;;;;;3.60;3.30;;;14.80;99.90;;;;;;4993209;28;20030;-80
2021/06/30 02:42:39;;;;;;;3.75;3.45;;;14.80;99.90;;;;;;5010757;28;20403;-80
2021/06/30 02:45:08;;;;;;;4.07;3.78;;;14.80;99.90;;;;;;5010055;28;20046;-80
2021/06/30 02:47:35;;;;;;;4.30;3.90;;;14.80;99.90;;;;;;4991614;28;20053;-80
2021/06/30 02:50:02;;;;;;;5.13;3.50;;;14.90;99.90;;;;;;4993034;28;20029;-80
2021/06/30 02:52:28;;;;;;;3.53;3.22;;;14.90;99.90;;;;;;4976414;28;20400;-80
2021/06/30 02:54:53;;;;;;;5.05;3.67;;;14.80;99.90;;;;;;5010910;28;20129;-80
2021/06/30 02:57:19;;;;;;;5.03;4.22;;;14.80;99.90;;;;;;4991068;28;20038;-80
2021/06/30 02:59:45;;;;;;;3.80;3.50;;;14.90;99.90;;;;;;4976842;28;20026;-80
2021/06/30 03:02:10;;;;;;;4.38;3.97;;;14.90;99.90;;;;;;4976885;28;20223;-80
2021/06/30 03:04:36;;;;;;;4.30;3.88;;;14.90;99.90;;;;;;4991349;28;20492;-80
2021/06/30 03:07:02;;;;;;;7.63;4.10;;;14.80;99.90;;;;;;4958342;28;20129;-80
2021/06/30 03:09:28;;;;;;;4.15;3.75;;;14.80;99.90;;;;;;5009190;28;20041;-80
2021/06/30 03:11:53;;;;;;;3.92;3.63;;;14.80;99.90;;;;;;5010499;28;20030;-80
2021/06/30 03:14:20;;;;;;;4.57;4.18;;;14.80;99.90;;;;;;4993735;28;20044;-80
2021/06/30 03:16:47;;;;;;;4.50;4.10;;;14.80;99.90;;;;;;4972242;28;20084;-79
2021/06/30 03:19:13;;;;;;;4.43;3.53;;;14.80;99.90;;;;;;4989164;28;20519;-80
2021/06/30 03:21:39;;;;;;;5.38;3.95;;;14.80;99.90;;;;;;4976853;28;20040;-81
2021/06/30 03:24:05;;;;;;;5.05;3.85;;;14.80;99.90;;;;;;4976696;28;20407;-80
2021/06/30 03:26:31;;;;;;;3.72;3.42;;;14.80;99.90;;;;;;4966471;28;20033;-80
2021/06/30 03:29:00;;;;;;;4.38;3.72;;;14.70;99.90;;;;;;4992498;28;20096;-80
2021/06/30 03:31:25;;;;;;;4.93;4.13;;;14.80;99.90;;;;;;4974892;28;20497;-80
2021/06/30 03:33:51;;;;;;;4.63;4.22;;;14.80;99.90;;;;;;5010219;28;20077;-80
2021/06/30 03:36:17;;;;;;;5.07;4.55;;;14.80;99.90;;;;;;5002182;28;20515;-80
2021/06/30 03:38:43;;;;;;;4.22;3.83;;;14.80;99.90;;;;;;4993039;28;20030;-80
2021/06/30 03:41:08;;;;;;;5.45;4.22;;;14.80;99.90;;;;;;4973031;28;20484;-80
2021/06/30 03:43:34;;;;;;;4.25;3.85;;;14.80;99.90;;;;;;4991888;28;20484;-80
2021/06/30 03:46:00;;;;;;;3.45;3.15;;;14.80;99.90;;;;;;4973297;28;20084;-80
2021/06/30 03:48:26;;;;;;;3.88;3.33;;;14.80;99.90;;;;;;4993442;28;20380;-80
2021/06/30 03:50:51;;;;;;;5.28;4.15;;;14.90;99.90;;;;;;4993112;28;20125;-81
2021/06/30 03:53:17;;;;;;;3.42;3.13;;;14.90;99.90;;;;;;4992820;28;20715;-80
2021/06/30 03:55:43;;;;;;;4.00;3.70;;;14.90;99.90;;;;;;4992195;28;20033;-81
2021/06/30 03:58:08;;;;;;;3.45;3.15;;;14.90;99.90;;;;;;4976891;28;20041;-81
2021/06/30 04:00:34;;;;;;;3.72;3.42;;;14.90;99.90;;;;;;4976620;28;20034;-80
2021/06/30 04:03:00;;;;;;;4.20;3.80;;;14.90;99.90;;;;;;4993812;28;20034;-80
2021/06/30 04:05:26;;;;;;;3.90;3.22;;;14.90;99.90;;;;;;4979852;28;20034;-80
2021/06/30 04:07:51;;;;;;;3.72;3.13;;;14.90;99.90;;;;;;4996754;28;20030;-80
2021/06/30 04:10:18;;;;;;;4.10;3.60;;;14.90;99.90;;;;;;4996063;28;20034;-80
2021/06/30 04:12:44;;;;;;;3.80;3.38;;;14.90;99.90;;;;;;4996767;28;20040;-80
2021/06/30 04:15:10;;;;;;;3.90;3.60;;;15.00;99.90;;;;;;4995190;28;20034;-80
2021/06/30 04:17:36;;;;;;;4.00;3.50;;;14.90;99.90;;;;;;4979998;28;20038;-81
2021/06/30 04:20:07;;;;;;;3.78;3.33;;;15.00;99.90;;;;;;4976840;28;20045;-80
2021/06/30 04:22:33;;;;;;;3.95;3.58;;;15.00;99.90;;;;;;4996100;28;20041;-81
2021/06/30 04:24:59;;;;;;;5.22;3.65;;;15.00;99.90;;;;;;4995917;28;20037;-80
2021/06/30 04:27:25;;;;;;;5.78;3.83;;;15.00;99.90;;;;;;4984425;28;20026;-80
2021/06/30 04:29:50;;;;;;;4.72;3.58;;;15.00;99.90;;;;;;4995779;28;20416;-81
2021/06/30 04:32:16;;;;;;;3.85;3.50;;;15.10;99.90;;;;;;4949064;28;20030;-81
2021/06/30 04:34:42;;;;;;;3.97;3.58;;;15.00;99.90;;;;;;4970115;28;20034;-81
2021/06/30 04:37:08;;;;;;;3.67;3.38;;;15.00;99.90;;;;;;4974308;28;20389;-80
2021/06/30 04:39:34;;;;;;;4.38;3.97;;;15.00;99.90;;;;;;4994954;28;20030;-80
2021/06/30 04:42:00;;;;;;;4.45;4.03;;;15.00;99.90;;;;;;4959777;28;20038;-80
2021/06/30 04:44:26;;;;;;;4.93;3.75;;;15.00;99.90;;;;;;4995629;28;20037;-80
2021/06/30 04:46:52;;;;;;;5.57;3.80;;;15.00;99.90;;;;;;4992421;28;20366;-80
2021/06/30 04:49:17;;;;;;;4.90;4.32;;;15.00;99.90;;;;;;4978749;28;20415;-80
2021/06/30 04:51:44;;;;;;;3.95;3.55;;;15.10;99.90;;;;;;4995280;28;20100;-80
2021/06/30 04:54:11;;;;;;;4.40;4.00;;;15.10;99.90;;;;;;4979179;28;20603;-80
2021/06/30 04:56:40;;;;;;;4.00;3.67;;;15.10;99.90;;;;;;4977821;28;20488;-81
2021/06/30 04:59:07;;;;;;;4.43;4.00;;;15.10;99.90;;;;;;4994535;28;20096;-80
2021/06/30 05:01:33;;;;;;;4.28;3.88;;;15.20;99.90;;;;;;4979013;28;20045;-79
2021/06/30 05:03:59;;;;;;;4.13;3.80;;;15.30;99.90;;;;;;4994767;28;20041;-81
2021/06/30 05:06:25;;;;;;;4.13;3.75;;;15.30;99.90;;;;;;4975900;28;20038;-81
2021/06/30 05:08:51;;;;;;;4.18;3.88;;;15.40;99.90;;;;;;4992308;28;20117;-81
2021/06/30 05:11:17;;;;;;;4.50;4.10;;;15.50;99.90;;;;;;5011095;28;20101;-81
2021/06/30 05:13:42;;;;;;;5.28;4.05;;;15.60;99.90;;;;;;4992539;28;20506;-80
2021/06/30 05:16:08;;;;;;;6.35;4.50;;;15.60;99.90;;;;;;4992543;28;20096;-80
2021/06/30 05:18:34;;;;;;;4.00;3.70;;;15.80;99.90;;;;;;4978219;28;20034;-80
2021/06/30 05:21:00;;;;;;;7.03;4.65;;;15.90;99.90;;;;;;4995215;28;20030;-81
2021/06/30 05:23:26;;;;;;;4.00;3.60;;;16.10;99.90;;;;;;4980496;28;20399;-80
2021/06/30 05:25:51;;;;;;;3.97;3.60;;;16.10;99.90;;;;;;4982154;28;20026;-80
2021/06/30 05:28:17;;;;;;;7.78;3.50;;;16.00;99.90;;;;;;4995898;28;20034;-81
2021/06/30 05:30:43;;;;;;;5.00;3.90;;;16.10;99.90;;;;;;5011645;28;20075;-81
2021/06/30 05:33:09;;;;;;;4.18;3.80;;;16.10;99.90;;;;;;4999706;28;20069;-81
2021/06/30 05:35:35;;;;;;;3.75;3.45;;;16.10;99.90;;;;;;5012147;28;20030;-81
2021/06/30 05:38:00;;;;;;;5.07;3.58;;;16.10;99.90;;;;;;5012705;28;20033;-80
2021/06/30 05:40:26;;;;;;;5.55;3.75;;;16.10;99.90;;;;;;4998562;28;20038;-81
2021/06/30 05:42:54;;;;;;;4.55;3.00;;;16.10;99.90;;;;;;4965133;28;20124;-81
2021/06/30 05:45:20;;;;;;;3.33;3.05;;;16.20;99.90;;;;;;4981466;28;20033;-81
2021/06/30 05:47:47;;;;;;;3.70;3.28;;;16.20;99.90;;;;;;4979247;28;20060;-82
2021/06/30 05:50:14;;;;;;;3.45;3.15;;;16.20;99.90;;;;;;5017070;28;20030;-83
2021/06/30 05:52:40;;;;;;;3.40;3.10;;;16.20;99.90;;;;;;5003861;28;20053;-82
2021/06/30 05:55:08;;;;;;;7.60;3.08;;;16.20;99.90;;;;;;4976756;28;20030;-81
2021/06/30 05:57:34;;;;;;;4.47;3.42;;;16.10;99.90;;;;;;4996834;28;20030;-81
2021/06/30 06:00:00;;;;;;;2.92;2.72;;;16.10;99.90;;;;;;5012541;28;20455;-81
2021/06/30 06:02:25;;;;;;;3.55;3.25;;;16.10;99.90;;;;;;5008590;28;20030;-81
2021/06/30 06:04:51;;;;;;;2.60;2.40;;;16.20;99.90;;;;;;4963456;28;20129;-81
2021/06/30 06:07:17;;;;;;;3.08;2.88;;;16.10;99.90;;;;;;4980479;28;20034;-80
2021/06/30 06:09:43;;;;;;;3.08;2.85;;;16.20;99.90;;;;;;4977367;28;20121;-81
2021/06/30 06:12:08;;;;;;;3.33;3.03;;;16.20;99.90;;;;;;4977316;28;20606;-81
2021/06/30 06:14:34;;;;;;;5.10;2.67;;;16.20;99.90;;;;;;4964512;28;20036;-80
2021/06/30 06:17:00;;;;;;;2.60;2.40;;;16.20;99.90;;;;;;4976720;28;20061;-81
2021/06/30 06:19:26;;;;;;;3.28;2.42;;;16.30;99.90;;;;;;4978171;28;20122;-80
2021/06/30 06:21:52;;;;;;;2.47;2.28;;;16.40;99.90;;;;;;4993368;28;20120;-80
2021/06/30 06:24:18;;;;;;;2.85;2.20;;;16.40;99.90;;;;;;5010274;28;20022;-81
2021/06/30 06:26:44;;;;;;;3.22;2.40;;;16.40;99.90;;;;;;4980095;28;20026;-82
2021/06/30 06:29:10;;;;;;;4.03;1.83;;;16.40;99.90;;;;;;4995462;28;20025;-81
2021/06/30 06:31:37;;;;;;;2.05;1.85;;;16.30;99.90;;;;;;4983014;28;20038;-82
2021/06/30 06:34:03;;;;;;;2.63;2.28;;;16.40;99.90;;;;;;4979961;28;20033;-81
2021/06/30 06:36:28;;;;;;;3.47;1.90;;;16.40;99.90;;;;;;4993729;28;20034;-80
2021/06/30 06:38:54;;;;;;;5.20;2.33;;;16.60;99.90;;;;;;4977583;28;20112;-80
2021/06/30 06:41:20;;;;;;;1.65;1.55;;;16.80;99.90;;;;;;4977992;28;20037;-81
2021/06/30 06:43:46;;;;;;;2.20;2.05;;;17.00;99.90;;;;;;4961656;28;20451;-81
2021/06/30 06:46:12;;;;;;;2.30;2.10;;;17.20;99.90;;;;;;4991335;28;20033;-81
2021/06/30 06:48:38;;;;;;;2.22;2.03;;;17.20;99.90;;;;;;4990497;28;20493;-81
2021/06/30 06:51:04;;;;;;;1.98;1.83;;;17.30;99.90;;;;;;4976724;28;20041;-81
2021/06/30 06:53:31;;;;;;;3.42;1.80;;;17.40;99.90;;;;;;4975098;28;20485;-81
2021/06/30 06:56:00;;;;;;;2.20;1.90;;;17.70;99.90;;;;;;4991809;28;20069;-81
2021/06/30 06:58:26;;;;;;;2.72;1.55;;;18.10;99.90;;;;;;4995453;28;20045;-81
2021/06/30 07:00:51;;;;;;;1.50;1.40;;;18.70;99.90;;;;;;4992715;28;20038;-81
2021/06/30 07:03:17;;;;;;;1.70;1.60;;;19.30;99.90;;;;;;4978667;28;20149;-81
2021/06/30 07:05:43;;;;;;;2.38;1.50;;;19.70;99.90;;;;;;4995424;28;20030;-80
2021/06/30 07:08:08;;;;;;;1.45;1.35;;;19.80;99.90;;;;;;4958277;28;20500;-80
2021/06/30 07:10:34;;;;;;;1.83;1.63;;;19.60;99.90;;;;;;5011062;28;20476;-82
2021/06/30 07:13:00;;;;;;;1.67;1.33;;;19.40;99.90;;;;;;4978520;28;20038;-80
2021/06/30 07:15:26;;;;;;;2.05;1.48;;;19.10;99.90;;;;;;5013913;28;20121;-80
2021/06/30 07:17:52;;;;;;;2.50;1.60;;;18.70;99.90;;;;;;4990968;28;20022;-80
2021/06/30 07:20:17;;;;;;;1.77;1.38;;;18.50;99.90;;;;;;4992606;28;20555;-80
2021/06/30 07:22:43;;;;;;;1.85;1.63;;;18.20;99.90;;;;;;4977906;28;20510;-80
2021/06/30 07:25:09;;;;;;;2.03;1.92;;;18.10;99.90;;;;;;4964929;28;20408;-80
2021/06/30 07:27:35;;;;;;;1.85;1.75;;;18.00;99.90;;;;;;4972832;28;20060;-80
2021/06/30 07:30:01;;;;;;;1.88;1.35;;;17.90;99.90;;;;;;4974998;28;20038;-79
2021/06/30 07:32:27;;;;;;;2.47;1.77;;;17.80;99.90;;;;;;4979379;28;20400;-81
2021/06/30 07:34:53;;;;;;;3.05;1.67;;;17.80;99.90;;;;;;4994215;28;20034;-80
2021/06/30 07:37:18;;;;;;;2.00;1.80;;;17.80;99.90;;;;;;4976714;28;20458;-80
2021/06/30 07:39:44;;;;;;;1.85;1.50;;;18.10;99.90;;;;;;4979268;28;20030;-81
2021/06/30 07:42:10;;;;;;;1.90;1.73;;;18.60;99.90;;;;;;4980286;28;20539;-80
2021/06/30 07:44:35;;;;;;;1.58;1.35;;;19.20;99.90;;;;;;4980659;28;20135;-80
2021/06/30 07:47:01;;;;;;;1.40;1.30;;;19.60;99.90;;;;;;4986785;28;20370;-82
2021/06/30 07:49:27;;;;;;;1.52;1.42;;;19.60;99.90;;;;;;4976098;28;20037;-81
2021/06/30 07:51:53;;;;;;;1.48;1.38;;;19.70;99.90;;;;;;4976682;28;20029;-83
2021/06/30 07:54:19;;;;;;;1.80;1.70;;;19.50;99.90;;;;;;4979276;28;20046;-82
2021/06/30 07:56:44;;;;;;;2.35;1.27;;;19.40;99.90;;;;;;4976674;28;20125;-81
2021/06/30 07:59:11;;;;;;;2.08;1.30;;;19.40;99.90;;;;;;4977649;28;20616;-81
2021/06/30 08:01:38;;;;;;;1.60;1.50;;;19.40;99.90;;;;;;4978022;28;20041;-80
2021/06/30 08:04:06;;;;;;;1.33;1.23;;;19.30;99.90;;;;;;5013008;28;20034;-81
2021/06/30 08:06:32;;;;;;;1.65;1.40;;;19.30;99.90;;;;;;4977731;28;20041;-80
2021/06/30 08:08:58;;;;;;;1.45;1.35;;;19.30;99.90;;;;;;5010949;28;20037;-80
2021/06/30 08:11:25;;;;;;;1.50;1.13;;;19.40;99.90;;;;;;4994048;28;20030;-80
2021/06/30 08:13:51;;;;;;;2.35;1.73;;;19.50;99.90;;;;;;4987604;28;20049;-80
2021/06/30 08:16:18;;;;;;;1.75;1.30;;;19.60;99.90;;;;;;5006599;28;20057;-81
2021/06/30 08:18:44;;;;;;;1.73;1.50;;;19.80;99.90;;;;;;4993651;28;20045;-81
2021/06/30 08:21:10;;;;;;;1.50;1.40;;;19.90;99.90;;;;;;5010373;28;20034;-80
2021/06/30 08:23:36;;;;;;;1.52;1.45;;;19.80;99.90;;;;;;4993881;28;20034;-79
2021/06/30 08:26:02;;;;;;;1.27;1.02;;;19.60;99.90;;;;;;5009789;28;20592;-80
2021/06/30 08:28:28;;;;;;;1.42;1.30;;;19.60;99.90;;;;;;4983411;28;20037;-80
2021/06/30 08:30:54;;;;;;;2.53;1.10;;;19.80;99.90;;;;;;4977901;28;20077;-80
2021/06/30 08:33:20;;;;;;;1.27;1.15;;;20.20;99.90;;;;;;4994183;28;20037;-80
2021/06/30 08:35:45;;;;;;;2.28;1.08;;;20.50;99.90;;;;;;4975837;28;20041;-81
2021/06/30 08:38:11;;;;;;;1.10;1.00;;;20.60;99.90;;;;;;4993642;28;20108;-80
2021/06/30 08:40:38;;;;;;;1.70;1.17;;;20.50;99.90;;;;;;4994501;28;20041;-80
2021/06/30 08:43:07;;;;;;;1.02;1.02;;;20.30;99.90;;;;;;4990659;28;20030;-80
2021/06/30 08:45:36;;;;;;;2.83;1.17;;;20.10;99.90;;;;;;4967952;28;20088;-80
2021/06/30 08:48:03;;;;;;;2.42;1.35;;;19.80;99.90;;;;;;4993259;28;20030;-81
2021/06/30 08:50:29;;;;;;;1.40;1.30;;;19.50;99.90;;;;;;4992085;28;20037;-80
2021/06/30 08:52:56;;;;;;;1.30;1.20;;;19.10;99.90;;;;;;5010441;28;20737;-80
2021/06/30 08:55:22;;;;;;;1.08;1.08;;;18.70;99.90;;;;;;5006877;28;20038;-81
2021/06/30 08:57:49;;;;;;;1.20;1.20;;;18.30;99.90;;;;;;4976534;28;20045;-80
2021/06/30 09:00:16;;;;;;;1.50;1.40;;;18.10;99.90;;;;;;4961718;28;20061;-80
2021/06/30 09:02:52;;;;;;;1.45;1.35;;;17.90;99.90;;;;;;4977492;28;20026;-80
2021/06/30 09:05:37;;;;;;;1.40;1.23;;;17.80;99.90;;;;;;4971490;28;20049;-80
2021/06/30 09:08:03;;;;;;;1.00;1.00;;;17.70;99.90;;;;;;4969124;28;20046;-78
2021/06/30 09:10:34;;;;;;;1.15;1.15;;;17.60;99.90;;;;;;4974483;28;20026;-81
2021/06/30 09:13:02;;;;;;;1.23;1.23;;;17.70;99.90;;;;;;4985210;28;20037;-80
2021/06/30 09:15:36;;;;;;;1.17;1.10;;;17.80;99.90;;;;;;4975072;28;20041;-80
2021/06/30 09:18:24;;;;;;;1.10;0.90;;;17.90;99.90;;;;;;5010451;28;20034;-80
2021/06/30 09:20:49;;;;;;;0.80;0.80;;;18.10;99.90;;;;;;4990250;28;20041;-80
2021/06/30 09:23:15;;;;;;;0.98;0.70;;;18.30;99.90;;;;;;4991010;28;20033;-80
2021/06/30 09:25:43;;;;;;;1.20;1.20;;;18.40;99.90;;;;;;5007833;28;20432;-79
2021/06/30 09:28:16;;;;;;;1.42;1.27;;;18.50;99.90;;;;;;5002588;28;20089;-80
2021/06/30 09:30:59;;;;;;;0.98;0.90;;;18.80;99.90;;;;;;5008846;28;20705;-79
2021/06/30 09:33:51;;;;;;;0.80;0.80;;;19.20;99.90;;;;;;5006521;28;20489;-80
2021/06/30 09:36:18;;;;;;;0.93;0.93;;;19.60;99.90;;;;;;4987669;28;20038;-82
2021/06/30 09:38:45;;;;;;;1.52;1.42;;;19.80;99.90;;;;;;4990915;28;20076;-82
2021/06/30 09:41:28;;;;;;;1.10;0.80;;;19.80;99.90;;;;;;4975206;28;20096;-80
2021/06/30 09:44:09;;;;;;;1.13;1.02;;;19.70;99.90;;;;;;4986264;28;20431;-79
2021/06/30 09:46:37;;;;;;;2.38;1.17;;;19.60;99.90;;;;;;5007558;28;20026;-80
2021/06/30 09:49:09;;;;;;;0.90;0.90;;;19.30;99.90;;;;;;5009327;28;20102;-80
2021/06/30 09:51:36;;;;;;;1.13;1.10;;;19.00;99.90;;;;;;4976527;28;20121;-80
2021/06/30 09:54:04;;;;;;;1.00;1.00;;;18.80;99.90;;;;;;5010205;28;20488;-79
2021/06/30 09:56:39;;;;;;;1.00;1.00;;;18.60;99.90;;;;;;4991231;28;20041;-80
2021/06/30 09:59:14;;;;;;;1.10;1.03;;;18.40;99.90;;;;;;5008912;28;20067;-80
2021/06/30 10:01:42;;;;;;;1.20;1.20;;;18.30;99.90;;;;;;4991549;28;20484;-81
2021/06/30 10:04:09;;;;;;;1.83;1.00;;;18.30;99.90;;;;;;4992242;28;20053;-82
2021/06/30 10:06:36;;;;;;;1.20;1.20;;;18.40;99.90;;;;;;4991820;28;20030;-80
2021/06/30 10:09:07;;;;;;;1.50;1.40;;;18.50;99.90;;;;;;4974456;28;20140;-81
2021/06/30 10:11:34;;;;;;;1.00;1.00;;;18.50;99.90;;;;;;4990842;28;20029;-80
2021/06/30 10:14:02;;;;;;;1.10;1.10;;;18.50;99.90;;;;;;4974635;28;20030;-80
2021/06/30 10:16:29;;;;;;;1.52;1.25;;;18.60;99.90;;;;;;4974249;28;20038;-80
2021/06/30 10:18:57;;;;;;;1.30;1.30;;;18.60;99.90;;;;;;5008697;28;20037;-81
2021/06/30 10:21:30;;;;;;;1.35;1.25;;;18.50;99.90;;;;;;5009784;28;20044;-78
2021/06/30 10:23:56;;;;;;;1.60;1.50;;;18.50;99.90;;;;;;4991573;28;20105;-79
2021/06/30 10:26:23;;;;;;;1.08;1.08;;;18.30;99.90;;;;;;4988999;28;20080;-81
2021/06/30 10:29:00;;;;;;;1.45;1.35;;;18.10;99.90;;;;;;4975444;28;20164;-81
2021/06/30 10:31:34;;;;;;;1.67;1.58;;;18.00;99.90;;;;;;4992713;28;20404;-80
2021/06/30 10:34:11;;;;;;;2.33;1.30;;;18.00;99.90;;;;;;5003343;28;20461;-81
2021/06/30 10:36:52;;;;;;;2.15;2.05;;;18.00;99.90;;;;;;4994243;28;20113;-80
2021/06/30 10:39:38;;;;;;;1.50;1.40;;;18.10;99.90;;;;;;4991604;28;20070;-79
2021/06/30 10:42:33;;;;;;;1.77;1.50;;;18.30;99.90;;;;;;4970134;28;20049;-80
2021/06/30 10:45:03;;;;;;;1.77;1.42;;;18.40;99.90;;;;;;5000325;28;20034;-79
2021/06/30 10:47:40;;;;;;;1.45;1.10;;;18.40;99.90;;;;;;4983882;28;20058;-80
2021/06/30 10:50:32;;;;;;;1.17;1.08;;;18.30;99.90;;;;;;4980953;28;20026;-80
2021/06/30 10:53:07;;;;;;;1.33;1.23;;;18.30;99.90;;;;;;4970101;28;20033;-80
2021/06/30 10:58:11;;;;;;;1.35;1.25;;;18.30;99.90;;;;;;4991677;28;20044;-80
2021/06/30 11:00:59;;;;;;;0.98;0.98;;;18.30;99.90;;;;;;4990249;28;20068;-79
2021/06/30 11:03:34;;;;;;;1.10;1.00;;;18.30;99.90;;;;;;4985424;28;20069;-80
2021/06/30 11:06:18;;;;;;;1.13;1.10;;;18.50;99.90;;;;;;4989483;28;20030;-79
2021/06/30 11:09:23;;;;;;;1.95;1.17;;;18.60;99.90;;;;;;4972450;28;20026;-79
2021/06/30 11:11:54;;;;;;;1.00;1.00;;;18.80;99.90;;;;;;4989064;28;20053;-79
2021/06/30 11:14:20;;;;;;;0.98;0.98;;;19.10;99.90;;;;;;4974644;28;20109;-80
2021/06/30 11:16:50;;;;;;;1.70;1.10;;;19.40;99.90;;;;;;4988505;28;20068;-79
2021/06/30 11:19:19;;;;;;;1.00;1.00;;;19.50;99.90;;;;;;4971783;28;20096;-80
2021/06/30 11:21:53;;;;;;;1.02;0.98;;;19.70;99.90;;;;;;4986487;28;20026;-80
2021/06/30 11:24:41;;;;;;;0.80;0.80;;;19.90;99.90;;;;;;5007688;28;20061;-80
2021/06/30 11:27:14;;;;;;;0.70;0.70;;;20.00;99.90;;;;;;5002975;28;20030;-80
2021/06/30 11:29:47;;;;;;;0.80;0.80;;;20.00;99.90;;;;;;4989953;28;20026;-80
2021/06/30 11:32:36;;;;;;;0.88;0.88;;;20.10;99.90;;;;;;4973913;28;20100;-79
2021/06/30 11:35:15;;;;;;;0.80;0.80;;;20.40;99.90;;;;;;4965501;28;20042;-80
2021/06/30 11:37:44;;;;;;;1.55;0.73;;;20.60;99.90;;;;;;5009745;28;20053;-81
2021/06/30 11:40:24;;;;;;;0.75;0.75;;;21.00;99.90;;;;;;5008191;28;20092;-79
2021/06/30 11:42:53;;;;;;;1.15;0.70;;;21.30;99.90;;;;;;4972982;28;20034;-80
2021/06/30 11:45:29;;;;;;;0.50;0.50;;;21.40;99.90;;;;;;4993225;28;20118;-79
2021/06/30 11:47:58;;;;;;;0.50;0.50;;;21.60;99.90;;;;;;4977111;28;20037;-80
2021/06/30 11:50:29;;;;;;;0.40;0.40;;;21.60;99.90;;;;;;4975496;28;20113;-80
2021/06/30 11:52:57;;;;;;;0.30;0.30;;;21.60;99.90;;;;;;5012220;28;20504;-80
2021/06/30 11:55:22;;;;;;;0.30;0.30;;;21.60;99.90;;;;;;4987464;28;20057;-80
2021/06/30 11:57:59;;;;;;;0.30;0.30;;;21.50;99.90;;;;;;4952785;28;20054;-79
2021/06/30 12:00:27;;;;;;;0.25;0.25;;;21.40;99.90;;;;;;4975070;28;20030;-80
2021/06/30 12:02:59;;;;;;;0.32;0.32;;;21.40;99.90;;;;;;4962210;28;20099;-80
2021/06/30 12:05:27;;;;;;;0.30;0.30;;;21.60;99.90;;;;;;4995642;28;20082;-80
2021/06/30 12:07:54;;;;;;;0.20;0.20;;;22.10;99.90;;;;;;4982854;28;20030;-80
2021/06/30 12:10:31;;;;;;;0.50;0.30;;;22.20;99.90;;;;;;4947040;28;20030;-80
2021/06/30 12:12:58;;;;;;;0.45;0.40;;;22.60;99.90;;;;;;4983809;28;20054;-79
2021/06/30 12:15:24;;;;;;;0.22;0.22;;;22.80;99.90;;;;;;5002671;28;20023;-80
2021/06/30 12:17:52;;;;;;;1.55;0.30;;;23.10;99.90;;;;;;4987887;28;20577;-79
2021/06/30 12:20:20;;;;;;;0.20;0.20;;;23.50;99.90;;;;;;4990964;28;20026;-80
2021/06/30 12:22:46;;;;;;;0.20;0.20;;;23.50;99.90;;;;;;4970443;28;20026;-78
2021/06/30 12:25:19;;;;;;;0.52;0.40;;;22.80;99.90;;;;;;4993402;28;20022;-79
2021/06/30 12:27:46;;;;;;;0.20;0.20;;;22.80;99.90;;;;;;4987682;28;20026;-80
2021/06/30 12:30:21;;;;;;;0.73;0.20;;;22.80;99.90;;;;;;5008484;28;20022;-80
2021/06/30 12:32:50;;;;;;;0.20;0.20;;;22.70;99.90;;;;;;4976003;28;20042;-80
2021/06/30 12:35:25;;;;;;;0.25;0.20;;;22.70;99.90;;;;;;5008165;28;20053;-79
2021/06/30 12:38:14;;;;;;;0.20;0.20;;;22.70;99.90;;;;;;5004411;28;20076;-79
2021/06/30 12:40:40;;;;;;;0.90;0.22;;;22.80;99.90;;;;;;4991593;28;20022;-78
2021/06/30 12:43:20;;;;;;;0.17;0.17;;;23.00;99.90;;;;;;5009527;28;20034;-80
2021/06/30 12:45:51;;;;;;;0.30;0.20;;;23.30;99.90;;;;;;4990320;28;20025;-79
2021/06/30 12:48:22;;;;;;;0.10;0.10;;;23.30;99.90;;;;;;4986906;28;20653;-80
2021/06/30 12:50:53;;;;;;;0.20;0.20;;;23.20;99.90;;;;;;5010234;28;20121;-81
2021/06/30 12:53:24;;;;;;;0.30;0.30;;;23.10;99.90;;;;;;5010188;28;20022;-79
2021/06/30 12:56:24;;;;;;;0.30;0.30;;;23.00;99.90;;;;;;4992236;28;20026;-79